sensor_id;sensor_type;location;lat;lon;timestamp;P1;durP1;ratioP1;P2;durP2;ratioP2
54899;SDS011;40801;41.924;25.562;2023-08-24T00:01:02;11.48;;;10.18;;
54899;SDS011;40801;41.924;25.562;2023-08-24T00:03:28;11.30;;;10.30;;
54899;SDS011;40801;41.924;25.562;2023-08-24T00:05:53;11.60;;;10.68;;
54899;SDS011;40801;41.924;25.562;2023-08-24T00:08:19;11.30;;;10.40;;
54899;SDS011;40801;41.924;25.562;2023-08-24T00:10:45;11.65;;;10.65;;
54899;SDS011;40801;41.924;25.562;2023-08-24T00:13:11;11.52;;;10.52;;
54899;SDS011;40801;41.924;25.562;2023-08-24T00:15:37;11.40;;;10.50;;
54899;SDS011;40801;41.924;25.562;2023-08-24T00:18:04;11.45;;;10.43;;
54899;SDS011;40801;41.924;25.562;2023-08-24T00:20:30;11.43;;;10.38;;
54899;SDS011;40801;41.924;25.562;2023-08-24T00:22:57;11.38;;;10.43;;
54899;SDS011;40801;41.924;25.562;2023-08-24T00:25:23;12.18;;;11.18;;
54899;SDS011;40801;41.924;25.562;2023-08-24T00:27:49;12.98;;;11.80;;
54899;SDS011;40801;41.924;25.562;2023-08-24T00:30:14;12.00;;;10.77;;
54899;SDS011;40801;41.924;25.562;2023-08-24T00:32:40;11.57;;;10.60;;
54899;SDS011;40801;41.924;25.562;2023-08-24T00:35:08;12.07;;;10.98;;
54899;SDS011;40801;41.924;25.562;2023-08-24T00:37:35;11.52;;;10.63;;
54899;SDS011;40801;41.924;25.562;2023-08-24T00:40:02;13.02;;;11.73;;
54899;SDS011;40801;41.924;25.562;2023-08-24T00:42:38;12.52;;;11.43;;
54899;SDS011;40801;41.924;25.562;2023-08-24T00:45:05;11.40;;;10.57;;
54899;SDS011;40801;41.924;25.562;2023-08-24T00:47:31;12.77;;;11.70;;
54899;SDS011;40801;41.924;25.562;2023-08-24T00:49:57;11.80;;;10.70;;
54899;SDS011;40801;41.924;25.562;2023-08-24T00:52:25;11.90;;;10.75;;
54899;SDS011;40801;41.924;25.562;2023-08-24T00:54:51;12.32;;;11.30;;
54899;SDS011;40801;41.924;25.562;2023-08-24T00:57:17;12.43;;;11.25;;
54899;SDS011;40801;41.924;25.562;2023-08-24T00:59:42;12.30;;;11.10;;
54899;SDS011;40801;41.924;25.562;2023-08-24T01:02:08;13.73;;;12.52;;
54899;SDS011;40801;41.924;25.562;2023-08-24T01:04:34;15.35;;;10.60;;
54899;SDS011;40801;41.924;25.562;2023-08-24T01:06:59;12.02;;;10.80;;
54899;SDS011;40801;41.924;25.562;2023-08-24T01:09:24;11.98;;;10.85;;
54899;SDS011;40801;41.924;25.562;2023-08-24T01:14:44;11.20;;;10.20;;
54899;SDS011;40801;41.924;25.562;2023-08-24T01:17:18;10.60;;;9.90;;
54899;SDS011;40801;41.924;25.562;2023-08-24T01:19:47;12.15;;;11.07;;
54899;SDS011;40801;41.924;25.562;2023-08-24T01:22:20;12.13;;;11.10;;
54899;SDS011;40801;41.924;25.562;2023-08-24T01:25:05;13.10;;;11.85;;
54899;SDS011;40801;41.924;25.562;2023-08-24T01:27:37;11.30;;;10.40;;
54899;SDS011;40801;41.924;25.562;2023-08-24T01:30:04;12.05;;;11.05;;
54899;SDS011;40801;41.924;25.562;2023-08-24T01:32:31;12.70;;;11.60;;
54899;SDS011;40801;41.924;25.562;2023-08-24T01:34:58;11.90;;;10.93;;
54899;SDS011;40801;41.924;25.562;2023-08-24T01:37:24;13.32;;;12.10;;
54899;SDS011;40801;41.924;25.562;2023-08-24T01:42:34;11.55;;;10.55;;
54899;SDS011;40801;41.924;25.562;2023-08-24T01:45:03;11.48;;;10.68;;
54899;SDS011;40801;41.924;25.562;2023-08-24T01:47:32;11.18;;;10.05;;
54899;SDS011;40801;41.924;25.562;2023-08-24T01:49:58;12.10;;;11.00;;
54899;SDS011;40801;41.924;25.562;2023-08-24T01:52:25;11.52;;;10.73;;
54899;SDS011;40801;41.924;25.562;2023-08-24T01:54:51;13.27;;;12.23;;
54899;SDS011;40801;41.924;25.562;2023-08-24T01:57:17;12.27;;;11.32;;
54899;SDS011;40801;41.924;25.562;2023-08-24T01:59:42;12.23;;;11.13;;
54899;SDS011;40801;41.924;25.562;2023-08-24T02:02:07;11.55;;;10.63;;
54899;SDS011;40801;41.924;25.562;2023-08-24T02:04:33;12.70;;;11.70;;
54899;SDS011;40801;41.924;25.562;2023-08-24T02:06:58;13.32;;;12.25;;
54899;SDS011;40801;41.924;25.562;2023-08-24T02:09:23;12.50;;;11.35;;
54899;SDS011;40801;41.924;25.562;2023-08-24T02:11:49;13.13;;;12.05;;
54899;SDS011;40801;41.924;25.562;2023-08-24T02:14:14;12.27;;;11.25;;
54899;SDS011;40801;41.924;25.562;2023-08-24T02:16:40;13.23;;;12.20;;
54899;SDS011;40801;41.924;25.562;2023-08-24T02:19:05;13.40;;;12.30;;
54899;SDS011;40801;41.924;25.562;2023-08-24T02:21:30;13.75;;;12.75;;
54899;SDS011;40801;41.924;25.562;2023-08-24T02:23:56;14.93;;;13.52;;
54899;SDS011;40801;41.924;25.562;2023-08-24T02:26:21;14.65;;;13.25;;
54899;SDS011;40801;41.924;25.562;2023-08-24T02:28:47;14.13;;;13.02;;
54899;SDS011;40801;41.924;25.562;2023-08-24T02:31:12;14.30;;;13.10;;
54899;SDS011;40801;41.924;25.562;2023-08-24T02:33:37;12.25;;;11.35;;
54899;SDS011;40801;41.924;25.562;2023-08-24T02:36:03;12.48;;;11.50;;
54899;SDS011;40801;41.924;25.562;2023-08-24T02:38:28;12.77;;;11.88;;
54899;SDS011;40801;41.924;25.562;2023-08-24T02:41:03;11.60;;;10.70;;
54899;SDS011;40801;41.924;25.562;2023-08-24T02:43:31;12.52;;;11.60;;
54899;SDS011;40801;41.924;25.562;2023-08-24T02:46:04;12.57;;;11.63;;
54899;SDS011;40801;41.924;25.562;2023-08-24T02:48:31;11.93;;;11.00;;
54899;SDS011;40801;41.924;25.562;2023-08-24T02:50:58;13.02;;;12.05;;
54899;SDS011;40801;41.924;25.562;2023-08-24T02:53:24;12.88;;;11.88;;
54899;SDS011;40801;41.924;25.562;2023-08-24T02:55:50;14.35;;;13.05;;
54899;SDS011;40801;41.924;25.562;2023-08-24T02:58:15;13.50;;;12.38;;
54899;SDS011;40801;41.924;25.562;2023-08-24T03:00:40;12.57;;;11.55;;
54899;SDS011;40801;41.924;25.562;2023-08-24T03:03:06;12.98;;;11.93;;
54899;SDS011;40801;41.924;25.562;2023-08-24T03:05:32;12.25;;;11.18;;
54899;SDS011;40801;41.924;25.562;2023-08-24T03:07:57;13.13;;;12.23;;
54899;SDS011;40801;41.924;25.562;2023-08-24T03:10:23;12.43;;;11.52;;
54899;SDS011;40801;41.924;25.562;2023-08-24T03:12:49;12.48;;;11.48;;
54899;SDS011;40801;41.924;25.562;2023-08-24T03:15:15;12.52;;;11.50;;
54899;SDS011;40801;41.924;25.562;2023-08-24T03:17:40;12.13;;;11.07;;
54899;SDS011;40801;41.924;25.562;2023-08-24T03:20:06;11.82;;;10.82;;
54899;SDS011;40801;41.924;25.562;2023-08-24T03:22:32;12.45;;;11.25;;
54899;SDS011;40801;41.924;25.562;2023-08-24T03:24:57;12.93;;;11.68;;
54899;SDS011;40801;41.924;25.562;2023-08-24T03:27:23;19.77;;;17.38;;
54899;SDS011;40801;41.924;25.562;2023-08-24T03:29:48;14.85;;;13.43;;
54899;SDS011;40801;41.924;25.562;2023-08-24T03:32:13;16.63;;;15.23;;
54899;SDS011;40801;41.924;25.562;2023-08-24T03:34:39;12.70;;;11.57;;
54899;SDS011;40801;41.924;25.562;2023-08-24T03:37:05;12.27;;;11.13;;
54899;SDS011;40801;41.924;25.562;2023-08-24T03:39:30;11.85;;;10.55;;
54899;SDS011;40801;41.924;25.562;2023-08-24T03:41:56;13.05;;;11.85;;
54899;SDS011;40801;41.924;25.562;2023-08-24T03:44:21;12.13;;;11.02;;
54899;SDS011;40801;41.924;25.562;2023-08-24T03:46:47;16.20;;;14.52;;
54899;SDS011;40801;41.924;25.562;2023-08-24T03:49:12;12.77;;;11.68;;
54899;SDS011;40801;41.924;25.562;2023-08-24T03:51:38;12.82;;;11.73;;
54899;SDS011;40801;41.924;25.562;2023-08-24T03:54:03;12.27;;;11.30;;
54899;SDS011;40801;41.924;25.562;2023-08-24T03:56:30;13.18;;;12.00;;
54899;SDS011;40801;41.924;25.562;2023-08-24T03:58:56;13.82;;;12.52;;
54899;SDS011;40801;41.924;25.562;2023-08-24T04:01:21;14.35;;;13.20;;
54899;SDS011;40801;41.924;25.562;2023-08-24T04:03:47;13.20;;;12.00;;
54899;SDS011;40801;41.924;25.562;2023-08-24T04:06:13;12.20;;;11.18;;
54899;SDS011;40801;41.924;25.562;2023-08-24T04:08:38;13.63;;;12.00;;
54899;SDS011;40801;41.924;25.562;2023-08-24T04:11:04;12.02;;;10.93;;
54899;SDS011;40801;41.924;25.562;2023-08-24T04:13:29;18.27;;;16.20;;
54899;SDS011;40801;41.924;25.562;2023-08-24T04:15:54;12.30;;;11.25;;
54899;SDS011;40801;41.924;25.562;2023-08-24T04:18:20;12.45;;;11.02;;
54899;SDS011;40801;41.924;25.562;2023-08-24T04:20:46;12.85;;;11.48;;
54899;SDS011;40801;41.924;25.562;2023-08-24T04:23:13;12.63;;;11.52;;
54899;SDS011;40801;41.924;25.562;2023-08-24T04:25:39;12.98;;;11.82;;
54899;SDS011;40801;41.924;25.562;2023-08-24T04:28:05;12.35;;;11.45;;
54899;SDS011;40801;41.924;25.562;2023-08-24T04:30:30;11.23;;;10.43;;
54899;SDS011;40801;41.924;25.562;2023-08-24T04:32:56;12.13;;;11.25;;
54899;SDS011;40801;41.924;25.562;2023-08-24T04:35:25;12.05;;;11.05;;
54899;SDS011;40801;41.924;25.562;2023-08-24T04:37:51;11.68;;;10.65;;
54899;SDS011;40801;41.924;25.562;2023-08-24T04:40:17;12.27;;;11.07;;
54899;SDS011;40801;41.924;25.562;2023-08-24T04:42:42;12.57;;;11.50;;
54899;SDS011;40801;41.924;25.562;2023-08-24T04:45:07;15.70;;;14.48;;
54899;SDS011;40801;41.924;25.562;2023-08-24T04:47:33;12.05;;;10.80;;
54899;SDS011;40801;41.924;25.562;2023-08-24T04:49:58;12.05;;;10.60;;
54899;SDS011;40801;41.924;25.562;2023-08-24T04:52:24;11.32;;;10.40;;
54899;SDS011;40801;41.924;25.562;2023-08-24T04:54:49;12.05;;;10.95;;
54899;SDS011;40801;41.924;25.562;2023-08-24T04:57:15;11.63;;;10.63;;
54899;SDS011;40801;41.924;25.562;2023-08-24T04:59:41;12.73;;;11.68;;
54899;SDS011;40801;41.924;25.562;2023-08-24T05:02:06;12.15;;;11.07;;
54899;SDS011;40801;41.924;25.562;2023-08-24T05:04:33;11.15;;;10.15;;
54899;SDS011;40801;41.924;25.562;2023-08-24T05:06:58;11.52;;;10.48;;
54899;SDS011;40801;41.924;25.562;2023-08-24T05:09:23;11.75;;;10.60;;
54899;SDS011;40801;41.924;25.562;2023-08-24T05:11:49;11.38;;;10.40;;
54899;SDS011;40801;41.924;25.562;2023-08-24T05:14:14;11.30;;;10.50;;
54899;SDS011;40801;41.924;25.562;2023-08-24T05:16:40;11.43;;;10.60;;
54899;SDS011;40801;41.924;25.562;2023-08-24T05:19:05;12.15;;;11.15;;
54899;SDS011;40801;41.924;25.562;2023-08-24T05:21:31;11.25;;;10.38;;
54899;SDS011;40801;41.924;25.562;2023-08-24T05:23:56;11.43;;;10.50;;
54899;SDS011;40801;41.924;25.562;2023-08-24T05:26:21;11.10;;;10.20;;
54899;SDS011;40801;41.924;25.562;2023-08-24T05:28:50;11.10;;;10.13;;
54899;SDS011;40801;41.924;25.562;2023-08-24T05:31:17;11.40;;;10.30;;
54899;SDS011;40801;41.924;25.562;2023-08-24T05:33:42;12.02;;;10.55;;
54899;SDS011;40801;41.924;25.562;2023-08-24T05:36:08;11.93;;;10.77;;
54899;SDS011;40801;41.924;25.562;2023-08-24T05:38:33;12.07;;;11.15;;
54899;SDS011;40801;41.924;25.562;2023-08-24T05:40:59;12.30;;;11.15;;
54899;SDS011;40801;41.924;25.562;2023-08-24T05:43:24;13.55;;;11.27;;
54899;SDS011;40801;41.924;25.562;2023-08-24T05:45:49;11.95;;;10.73;;
54899;SDS011;40801;41.924;25.562;2023-08-24T05:48:15;11.55;;;10.63;;
54899;SDS011;40801;41.924;25.562;2023-08-24T05:50:44;13.00;;;11.98;;
54899;SDS011;40801;41.924;25.562;2023-08-24T05:53:11;12.32;;;11.18;;
54899;SDS011;40801;41.924;25.562;2023-08-24T05:55:37;12.95;;;11.77;;
54899;SDS011;40801;41.924;25.562;2023-08-24T05:58:03;12.38;;;11.02;;
54899;SDS011;40801;41.924;25.562;2023-08-24T06:00:29;12.30;;;11.00;;
54899;SDS011;40801;41.924;25.562;2023-08-24T06:02:54;12.52;;;11.30;;
54899;SDS011;40801;41.924;25.562;2023-08-24T06:05:20;13.00;;;11.70;;
54899;SDS011;40801;41.924;25.562;2023-08-24T06:07:45;11.77;;;10.77;;
54899;SDS011;40801;41.924;25.562;2023-08-24T06:10:11;11.88;;;10.98;;
54899;SDS011;40801;41.924;25.562;2023-08-24T06:12:37;12.50;;;11.50;;
54899;SDS011;40801;41.924;25.562;2023-08-24T06:15:03;12.65;;;11.57;;
54899;SDS011;40801;41.924;25.562;2023-08-24T06:17:29;15.15;;;11.88;;
54899;SDS011;40801;41.924;25.562;2023-08-24T06:19:55;12.23;;;11.15;;
54899;SDS011;40801;41.924;25.562;2023-08-24T06:22:21;12.50;;;11.43;;
54899;SDS011;40801;41.924;25.562;2023-08-24T06:24:46;11.88;;;10.77;;
54899;SDS011;40801;41.924;25.562;2023-08-24T06:27:11;10.93;;;10.02;;
54899;SDS011;40801;41.924;25.562;2023-08-24T06:29:37;10.60;;;9.57;;
54899;SDS011;40801;41.924;25.562;2023-08-24T06:32:02;10.60;;;9.80;;
54899;SDS011;40801;41.924;25.562;2023-08-24T06:34:28;11.18;;;10.00;;
54899;SDS011;40801;41.924;25.562;2023-08-24T06:36:53;10.55;;;9.65;;
54899;SDS011;40801;41.924;25.562;2023-08-24T06:39:19;11.07;;;10.23;;
54899;SDS011;40801;41.924;25.562;2023-08-24T06:41:44;11.13;;;10.32;;
54899;SDS011;40801;41.924;25.562;2023-08-24T06:44:10;12.35;;;11.07;;
54899;SDS011;40801;41.924;25.562;2023-08-24T06:46:35;12.63;;;11.25;;
54899;SDS011;40801;41.924;25.562;2023-08-24T06:49:01;12.52;;;11.15;;
54899;SDS011;40801;41.924;25.562;2023-08-24T06:51:26;11.63;;;10.18;;
54899;SDS011;40801;41.924;25.562;2023-08-24T06:53:52;11.02;;;10.23;;
54899;SDS011;40801;41.924;25.562;2023-08-24T06:56:18;12.25;;;11.05;;
54899;SDS011;40801;41.924;25.562;2023-08-24T06:58:44;11.13;;;10.32;;
54899;SDS011;40801;41.924;25.562;2023-08-24T07:01:10;11.40;;;10.50;;
54899;SDS011;40801;41.924;25.562;2023-08-24T07:03:36;10.82;;;10.02;;
54899;SDS011;40801;41.924;25.562;2023-08-24T07:06:01;11.38;;;10.48;;
54899;SDS011;40801;41.924;25.562;2023-08-24T07:08:27;10.88;;;10.07;;
54899;SDS011;40801;41.924;25.562;2023-08-24T07:10:52;11.73;;;10.70;;
54899;SDS011;40801;41.924;25.562;2023-08-24T07:13:18;10.63;;;9.63;;
54899;SDS011;40801;41.924;25.562;2023-08-24T07:15:43;13.27;;;10.90;;
54899;SDS011;40801;41.924;25.562;2023-08-24T07:18:10;11.25;;;10.25;;
54899;SDS011;40801;41.924;25.562;2023-08-24T07:20:36;16.77;;;15.27;;
54899;SDS011;40801;41.924;25.562;2023-08-24T07:23:02;10.52;;;9.73;;
54899;SDS011;40801;41.924;25.562;2023-08-24T07:25:28;11.85;;;10.65;;
54899;SDS011;40801;41.924;25.562;2023-08-24T07:27:54;11.07;;;10.18;;
54899;SDS011;40801;41.924;25.562;2023-08-24T07:30:24;10.57;;;9.68;;
54899;SDS011;40801;41.924;25.562;2023-08-24T07:32:51;10.52;;;9.40;;
54899;SDS011;40801;41.924;25.562;2023-08-24T07:35:17;11.55;;;10.70;;
54899;SDS011;40801;41.924;25.562;2023-08-24T07:37:43;12.18;;;11.00;;
54899;SDS011;40801;41.924;25.562;2023-08-24T07:40:08;10.45;;;9.65;;
54899;SDS011;40801;41.924;25.562;2023-08-24T07:42:51;11.85;;;10.52;;
54899;SDS011;40801;41.924;25.562;2023-08-24T07:45:21;11.27;;;10.18;;
54899;SDS011;40801;41.924;25.562;2023-08-24T07:47:48;11.77;;;10.38;;
54899;SDS011;40801;41.924;25.562;2023-08-24T07:50:14;12.25;;;11.45;;
54899;SDS011;40801;41.924;25.562;2023-08-24T07:52:39;11.20;;;10.30;;
54899;SDS011;40801;41.924;25.562;2023-08-24T07:55:06;13.90;;;12.80;;
54899;SDS011;40801;41.924;25.562;2023-08-24T07:57:32;12.25;;;11.45;;
54899;SDS011;40801;41.924;25.562;2023-08-24T07:59:58;11.70;;;10.77;;
54899;SDS011;40801;41.924;25.562;2023-08-24T08:02:24;13.55;;;12.27;;
54899;SDS011;40801;41.924;25.562;2023-08-24T08:04:49;11.93;;;10.80;;
54899;SDS011;40801;41.924;25.562;2023-08-24T08:07:35;12.23;;;11.07;;
54899;SDS011;40801;41.924;25.562;2023-08-24T08:10:00;11.50;;;10.60;;
54899;SDS011;40801;41.924;25.562;2023-08-24T08:12:26;12.50;;;11.45;;
54899;SDS011;40801;41.924;25.562;2023-08-24T08:14:51;20.15;;;18.52;;
54899;SDS011;40801;41.924;25.562;2023-08-24T08:17:17;12.00;;;10.77;;
54899;SDS011;40801;41.924;25.562;2023-08-24T08:19:42;10.65;;;9.75;;
54899;SDS011;40801;41.924;25.562;2023-08-24T08:22:08;12.50;;;11.40;;
54899;SDS011;40801;41.924;25.562;2023-08-24T08:24:34;12.25;;;11.35;;
54899;SDS011;40801;41.924;25.562;2023-08-24T08:27:00;14.00;;;12.90;;
54899;SDS011;40801;41.924;25.562;2023-08-24T08:29:25;12.65;;;11.65;;
54899;SDS011;40801;41.924;25.562;2023-08-24T08:31:50;12.25;;;11.25;;
54899;SDS011;40801;41.924;25.562;2023-08-24T08:34:16;11.95;;;11.05;;
54899;SDS011;40801;41.924;25.562;2023-08-24T08:36:41;12.18;;;11.27;;
54899;SDS011;40801;41.924;25.562;2023-08-24T08:39:07;11.10;;;10.10;;
54899;SDS011;40801;41.924;25.562;2023-08-24T08:41:43;13.48;;;12.45;;
54899;SDS011;40801;41.924;25.562;2023-08-24T08:44:12;11.20;;;10.30;;
54899;SDS011;40801;41.924;25.562;2023-08-24T08:46:42;10.20;;;9.40;;
54899;SDS011;40801;41.924;25.562;2023-08-24T08:49:08;10.55;;;9.57;;
54899;SDS011;40801;41.924;25.562;2023-08-24T08:51:37;11.05;;;10.25;;
54899;SDS011;40801;41.924;25.562;2023-08-24T08:54:06;10.55;;;9.75;;
54899;SDS011;40801;41.924;25.562;2023-08-24T08:56:32;9.75;;;8.95;;
54899;SDS011;40801;41.924;25.562;2023-08-24T08:58:58;10.18;;;9.38;;
54899;SDS011;40801;41.924;25.562;2023-08-24T09:01:28;10.35;;;9.45;;
54899;SDS011;40801;41.924;25.562;2023-08-24T09:03:54;10.48;;;9.57;;
54899;SDS011;40801;41.924;25.562;2023-08-24T09:06:20;10.43;;;9.73;;
54899;SDS011;40801;41.924;25.562;2023-08-24T09:08:45;9.50;;;8.75;;
54899;SDS011;40801;41.924;25.562;2023-08-24T09:11:12;9.57;;;8.65;;
54899;SDS011;40801;41.924;25.562;2023-08-24T09:13:38;9.02;;;8.32;;
54899;SDS011;40801;41.924;25.562;2023-08-24T09:16:04;9.82;;;8.23;;
54899;SDS011;40801;41.924;25.562;2023-08-24T09:21:10;9.18;;;8.48;;
54899;SDS011;40801;41.924;25.562;2023-08-24T09:23:37;9.63;;;8.95;;
54899;SDS011;40801;41.924;25.562;2023-08-24T09:26:09;9.07;;;8.48;;
54899;SDS011;40801;41.924;25.562;2023-08-24T09:28:34;8.98;;;8.20;;
54899;SDS011;40801;41.924;25.562;2023-08-24T09:31:01;10.32;;;9.32;;
54899;SDS011;40801;41.924;25.562;2023-08-24T09:33:28;11.20;;;9.98;;
54899;SDS011;40801;41.924;25.562;2023-08-24T09:35:54;8.73;;;8.13;;
54899;SDS011;40801;41.924;25.562;2023-08-24T09:38:26;9.15;;;8.55;;
54899;SDS011;40801;41.924;25.562;2023-08-24T09:40:53;8.85;;;8.15;;
54899;SDS011;40801;41.924;25.562;2023-08-24T09:43:20;7.78;;;7.03;;
54899;SDS011;40801;41.924;25.562;2023-08-24T09:45:53;7.88;;;7.32;;
54899;SDS011;40801;41.924;25.562;2023-08-24T09:48:19;7.75;;;7.13;;
54899;SDS011;40801;41.924;25.562;2023-08-24T09:50:47;8.27;;;7.45;;
54899;SDS011;40801;41.924;25.562;2023-08-24T09:53:17;7.50;;;7.10;;
54899;SDS011;40801;41.924;25.562;2023-08-24T09:55:55;8.10;;;7.47;;
54899;SDS011;40801;41.924;25.562;2023-08-24T09:58:24;8.25;;;7.53;;
54899;SDS011;40801;41.924;25.562;2023-08-24T10:00:50;7.75;;;7.25;;
54899;SDS011;40801;41.924;25.562;2023-08-24T10:03:18;8.50;;;7.75;;
54899;SDS011;40801;41.924;25.562;2023-08-24T10:05:49;8.65;;;7.80;;
54899;SDS011;40801;41.924;25.562;2023-08-24T10:08:17;8.32;;;7.82;;
54899;SDS011;40801;41.924;25.562;2023-08-24T10:10:46;8.90;;;8.07;;
54899;SDS011;40801;41.924;25.562;2023-08-24T10:13:21;8.52;;;7.82;;
54899;SDS011;40801;41.924;25.562;2023-08-24T10:15:54;8.40;;;7.55;;
54899;SDS011;40801;41.924;25.562;2023-08-24T10:18:21;8.77;;;8.07;;
54899;SDS011;40801;41.924;25.562;2023-08-24T10:20:49;8.00;;;7.20;;
54899;SDS011;40801;41.924;25.562;2023-08-24T10:23:15;8.57;;;7.88;;
54899;SDS011;40801;41.924;25.562;2023-08-24T10:25:41;8.85;;;8.27;;
54899;SDS011;40801;41.924;25.562;2023-08-24T10:28:09;8.27;;;7.68;;
54899;SDS011;40801;41.924;25.562;2023-08-24T10:30:36;8.20;;;7.60;;
54899;SDS011;40801;41.924;25.562;2023-08-24T10:33:02;8.37;;;7.70;;
54899;SDS011;40801;41.924;25.562;2023-08-24T10:35:29;8.70;;;8.07;;
54899;SDS011;40801;41.924;25.562;2023-08-24T10:37:55;9.25;;;8.48;;
54899;SDS011;40801;41.924;25.562;2023-08-24T10:40:30;8.65;;;7.95;;
54899;SDS011;40801;41.924;25.562;2023-08-24T10:42:57;7.75;;;7.20;;
54899;SDS011;40801;41.924;25.562;2023-08-24T10:45:23;7.90;;;7.30;;
54899;SDS011;40801;41.924;25.562;2023-08-24T10:47:53;8.13;;;7.50;;
54899;SDS011;40801;41.924;25.562;2023-08-24T10:50:19;7.35;;;6.80;;
54899;SDS011;40801;41.924;25.562;2023-08-24T10:52:44;8.18;;;7.47;;
54899;SDS011;40801;41.924;25.562;2023-08-24T10:55:26;8.73;;;7.78;;
54899;SDS011;40801;41.924;25.562;2023-08-24T10:58:01;8.27;;;7.57;;
54899;SDS011;40801;41.924;25.562;2023-08-24T11:00:28;8.55;;;7.85;;
54899;SDS011;40801;41.924;25.562;2023-08-24T11:02:55;9.02;;;8.23;;
54899;SDS011;40801;41.924;25.562;2023-08-24T11:05:26;8.70;;;7.85;;
54899;SDS011;40801;41.924;25.562;2023-08-24T11:07:58;8.35;;;7.72;;
54899;SDS011;40801;41.924;25.562;2023-08-24T11:10:25;8.40;;;7.88;;
54899;SDS011;40801;41.924;25.562;2023-08-24T11:15:47;10.05;;;7.43;;
54899;SDS011;40801;41.924;25.562;2023-08-24T11:20:48;7.70;;;7.05;;
54899;SDS011;40801;41.924;25.562;2023-08-24T11:23:17;8.35;;;7.70;;
54899;SDS011;40801;41.924;25.562;2023-08-24T11:25:44;7.93;;;7.38;;
54899;SDS011;40801;41.924;25.562;2023-08-24T11:28:11;7.85;;;7.15;;
54899;SDS011;40801;41.924;25.562;2023-08-24T11:30:36;7.22;;;6.75;;
54899;SDS011;40801;41.924;25.562;2023-08-24T11:33:02;8.15;;;7.45;;
54899;SDS011;40801;41.924;25.562;2023-08-24T11:35:28;8.35;;;7.75;;
54899;SDS011;40801;41.924;25.562;2023-08-24T11:37:54;8.43;;;7.80;;
54899;SDS011;40801;41.924;25.562;2023-08-24T11:40:21;8.10;;;7.38;;
54899;SDS011;40801;41.924;25.562;2023-08-24T11:42:54;8.25;;;7.57;;
54899;SDS011;40801;41.924;25.562;2023-08-24T11:45:20;8.30;;;7.57;;
54899;SDS011;40801;41.924;25.562;2023-08-24T11:47:46;9.38;;;8.65;;
54899;SDS011;40801;41.924;25.562;2023-08-24T11:50:12;12.27;;;11.18;;
54899;SDS011;40801;41.924;25.562;2023-08-24T11:52:40;9.15;;;8.35;;
54899;SDS011;40801;41.924;25.562;2023-08-24T11:55:06;10.15;;;9.30;;
54899;SDS011;40801;41.924;25.562;2023-08-24T11:57:34;8.65;;;8.10;;
54899;SDS011;40801;41.924;25.562;2023-08-24T11:59:59;8.35;;;7.85;;
54899;SDS011;40801;41.924;25.562;2023-08-24T12:02:26;9.38;;;8.43;;
54899;SDS011;40801;41.924;25.562;2023-08-24T12:04:51;10.18;;;9.27;;
54899;SDS011;40801;41.924;25.562;2023-08-24T12:07:16;9.65;;;8.02;;
54899;SDS011;40801;41.924;25.562;2023-08-24T12:09:43;9.23;;;8.52;;
54899;SDS011;40801;41.924;25.562;2023-08-24T12:12:13;8.20;;;7.65;;
54899;SDS011;40801;41.924;25.562;2023-08-24T12:14:40;8.20;;;7.57;;
54899;SDS011;40801;41.924;25.562;2023-08-24T12:17:06;7.95;;;7.45;;
54899;SDS011;40801;41.924;25.562;2023-08-24T12:19:32;9.35;;;8.50;;
54899;SDS011;40801;41.924;25.562;2023-08-24T12:21:58;8.43;;;7.53;;
54899;SDS011;40801;41.924;25.562;2023-08-24T12:24:23;7.80;;;7.20;;
54899;SDS011;40801;41.924;25.562;2023-08-24T12:26:55;8.75;;;7.97;;
54899;SDS011;40801;41.924;25.562;2023-08-24T12:29:22;8.23;;;7.60;;
54899;SDS011;40801;41.924;25.562;2023-08-24T12:31:47;7.95;;;7.22;;
54899;SDS011;40801;41.924;25.562;2023-08-24T12:34:14;7.90;;;7.32;;
54899;SDS011;40801;41.924;25.562;2023-08-24T12:36:41;10.55;;;7.85;;
54899;SDS011;40801;41.924;25.562;2023-08-24T12:39:10;8.25;;;7.72;;
54899;SDS011;40801;41.924;25.562;2023-08-24T12:41:37;8.88;;;8.00;;
54899;SDS011;40801;41.924;25.562;2023-08-24T12:44:03;9.65;;;8.75;;
54899;SDS011;40801;41.924;25.562;2023-08-24T12:46:33;8.05;;;7.18;;
54899;SDS011;40801;41.924;25.562;2023-08-24T12:49:02;9.00;;;8.30;;
54899;SDS011;40801;41.924;25.562;2023-08-24T12:51:28;8.55;;;7.95;;
54899;SDS011;40801;41.924;25.562;2023-08-24T12:53:53;8.40;;;7.60;;
54899;SDS011;40801;41.924;25.562;2023-08-24T12:56:18;9.43;;;8.40;;
54899;SDS011;40801;41.924;25.562;2023-08-24T12:58:44;8.88;;;8.13;;
54899;SDS011;40801;41.924;25.562;2023-08-24T13:01:10;11.30;;;10.30;;
54899;SDS011;40801;41.924;25.562;2023-08-24T13:06:04;9.48;;;8.15;;
54899;SDS011;40801;41.924;25.562;2023-08-24T13:08:30;10.07;;;9.32;;
54899;SDS011;40801;41.924;25.562;2023-08-24T13:10:56;8.50;;;7.90;;
54899;SDS011;40801;41.924;25.562;2023-08-24T13:13:21;7.80;;;7.28;;
54899;SDS011;40801;41.924;25.562;2023-08-24T13:15:50;8.63;;;7.88;;
54899;SDS011;40801;41.924;25.562;2023-08-24T13:18:16;8.93;;;8.18;;
54899;SDS011;40801;41.924;25.562;2023-08-24T13:20:42;8.90;;;8.23;;
54899;SDS011;40801;41.924;25.562;2023-08-24T13:23:08;8.27;;;7.68;;
54899;SDS011;40801;41.924;25.562;2023-08-24T13:25:33;8.27;;;7.63;;
54899;SDS011;40801;41.924;25.562;2023-08-24T13:27:59;8.55;;;7.68;;
54899;SDS011;40801;41.924;25.562;2023-08-24T13:30:24;8.38;;;7.78;;
54899;SDS011;40801;41.924;25.562;2023-08-24T13:32:49;8.35;;;7.65;;
54899;SDS011;40801;41.924;25.562;2023-08-24T13:35:15;9.70;;;7.15;;
54899;SDS011;40801;41.924;25.562;2023-08-24T13:37:40;7.40;;;6.90;;
54899;SDS011;40801;41.924;25.562;2023-08-24T13:40:06;11.25;;;10.50;;
54899;SDS011;40801;41.924;25.562;2023-08-24T13:42:33;7.70;;;7.10;;
54899;SDS011;40801;41.924;25.562;2023-08-24T13:44:58;8.27;;;7.65;;
54899;SDS011;40801;41.924;25.562;2023-08-24T13:47:23;7.90;;;7.20;;
54899;SDS011;40801;41.924;25.562;2023-08-24T13:49:49;8.27;;;7.68;;
54899;SDS011;40801;41.924;25.562;2023-08-24T13:52:15;9.30;;;8.65;;
54899;SDS011;40801;41.924;25.562;2023-08-24T13:54:41;7.88;;;7.28;;
54899;SDS011;40801;41.924;25.562;2023-08-24T13:57:08;8.60;;;8.03;;
54899;SDS011;40801;41.924;25.562;2023-08-24T13:59:33;8.18;;;7.10;;
54899;SDS011;40801;41.924;25.562;2023-08-24T14:01:59;9.75;;;8.95;;
54899;SDS011;40801;41.924;25.562;2023-08-24T14:04:24;9.23;;;8.43;;
54899;SDS011;40801;41.924;25.562;2023-08-24T14:06:49;12.85;;;11.70;;
54899;SDS011;40801;41.924;25.562;2023-08-24T14:09:15;9.02;;;8.32;;
54899;SDS011;40801;41.924;25.562;2023-08-24T14:11:41;8.40;;;7.80;;
54899;SDS011;40801;41.924;25.562;2023-08-24T14:14:06;8.98;;;8.15;;
54899;SDS011;40801;41.924;25.562;2023-08-24T14:16:31;8.32;;;7.72;;
54899;SDS011;40801;41.924;25.562;2023-08-24T14:18:57;10.07;;;9.15;;
54899;SDS011;40801;41.924;25.562;2023-08-24T14:21:22;9.25;;;8.45;;
54899;SDS011;40801;41.924;25.562;2023-08-24T14:23:51;8.30;;;7.50;;
54899;SDS011;40801;41.924;25.562;2023-08-24T14:26:16;9.00;;;8.40;;
54899;SDS011;40801;41.924;25.562;2023-08-24T14:28:52;9.30;;;8.43;;
54899;SDS011;40801;41.924;25.562;2023-08-24T14:31:23;9.45;;;8.65;;